createdAt,value
2023-05-22T00:01:46.574Z,56.34
2023-05-22T00:04:23.998Z,56.22
2023-05-22T00:06:58.001Z,56.75
2023-05-22T00:09:27.993Z,56.63
2023-05-22T00:12:07.415Z,56.72
2023-05-22T00:14:45.261Z,56.85
2023-05-22T00:17:23.969Z,57.11
2023-05-22T00:20:11.764Z,57.42
2023-05-22T00:22:50.202Z,57.55
2023-05-22T00:25:28.916Z,57.80
2023-05-22T00:28:07.536Z,57.71
2023-05-22T00:30:38.491Z,57.60
2023-05-22T00:33:17.219Z,57.95
2023-05-22T00:35:55.349Z,58.13
2023-05-22T00:38:40.099Z,58.16
2023-05-22T00:41:12.517Z,58.69
2023-05-22T00:43:45.823Z,58.53
2023-05-22T00:46:21.889Z,58.88
2023-05-22T00:48:59.210Z,58.86
2023-05-22T00:51:36.672Z,58.55
2023-05-22T00:54:14.986Z,58.68
2023-05-22T00:56:46.854Z,58.51
2023-05-22T00:59:18.012Z,58.49
2023-05-22T01:01:56.358Z,58.56
2023-05-22T01:04:35.549Z,58.44
2023-05-22T01:07:13.423Z,58.72
2023-05-22T01:09:54.829Z,58.97
2023-05-22T01:12:49.242Z,58.66
2023-05-22T01:15:45.388Z,59.09
2023-05-22T01:18:42.379Z,58.75
2023-05-22T01:22:01.547Z,59.00
2023-05-22T01:25:30.510Z,59.22
2023-05-22T01:28:59.171Z,59.50
2023-05-22T01:31:45.511Z,59.72
2023-05-22T01:34:21.961Z,59.82
2023-05-22T01:36:59.767Z,59.91
2023-05-22T01:39:38.768Z,60.09
2023-05-22T01:42:17.704Z,60.05
2023-05-22T01:44:59.383Z,60.28
2023-05-22T01:47:38.021Z,60.53
2023-05-22T01:50:17.366Z,60.82
2023-05-22T01:53:40.013Z,60.58
2023-05-22T01:56:34.380Z,60.68
2023-05-22T01:59:34.531Z,60.69
2023-05-22T02:02:12.797Z,60.63
2023-05-22T02:05:00.598Z,60.57
2023-05-22T02:07:40.861Z,60.81
2023-05-22T02:10:20.387Z,61.09
2023-05-22T02:12:58.762Z,61.20
2023-05-22T02:15:37.406Z,61.56
2023-05-22T02:18:17.901Z,61.62
2023-05-22T02:20:56.310Z,61.73
2023-05-22T02:23:31.838Z,61.65
2023-05-22T02:26:10.056Z,61.91
2023-05-22T02:28:47.504Z,62.20
2023-05-22T02:31:21.956Z,62.54
2023-05-22T02:33:59.905Z,62.59
2023-05-22T02:36:38.035Z,62.82
2023-05-22T02:39:15.644Z,63.20
2023-05-22T02:41:53.407Z,63.07
2023-05-22T02:44:23.510Z,62.86
2023-05-22T02:47:01.358Z,62.93
2023-05-22T02:49:40.006Z,62.96
2023-05-22T02:52:19.492Z,63.20
2023-05-22T02:54:56.686Z,63.27
2023-05-22T02:57:34.207Z,63.40
2023-05-22T03:00:13.469Z,63.36
2023-05-22T03:02:52.178Z,63.48
2023-05-22T03:05:29.963Z,63.55
2023-05-22T03:08:09.227Z,63.45
2023-05-22T03:10:46.958Z,63.63
2023-05-22T03:13:17.322Z,63.28
2023-05-22T03:15:55.788Z,63.28
2023-05-22T03:18:28.311Z,63.45
2023-05-22T03:21:03.388Z,63.87
2023-05-22T03:23:34.421Z,63.71
2023-05-22T03:26:13.465Z,63.95
2023-05-22T03:28:51.018Z,63.97
2023-05-22T03:31:34.932Z,63.95
2023-05-22T03:34:13.149Z,64.07
2023-05-22T03:36:51.630Z,63.79
2023-05-22T03:39:30.039Z,63.51
2023-05-22T03:42:09.284Z,63.41
2023-05-22T03:44:47.471Z,63.38
2023-05-22T03:47:25.709Z,63.57
2023-05-22T03:50:03.467Z,63.22
2023-05-22T03:52:41.821Z,62.94
2023-05-22T03:55:19.255Z,62.47
2023-05-22T03:57:58.138Z,62.46
2023-05-22T04:00:28.199Z,62.43
2023-05-22T04:02:59.107Z,62.17
2023-05-22T04:05:37.526Z,61.93
2023-05-22T04:08:15.489Z,61.67
2023-05-22T04:10:54.684Z,61.65
2023-05-22T04:13:33.541Z,62.28
2023-05-22T04:16:04.656Z,62.26
2023-05-22T04:18:43.853Z,62.24
2023-05-22T04:21:24.016Z,61.85
2023-05-22T04:24:07.559Z,61.47
2023-05-22T04:26:46.147Z,60.79
2023-05-22T04:29:25.184Z,60.94
2023-05-22T04:32:03.422Z,60.38
2023-05-22T04:34:42.555Z,59.28
2023-05-22T04:37:21.000Z,58.09
2023-05-22T04:40:07.371Z,57.77
2023-05-22T04:42:46.479Z,56.80
2023-05-22T04:45:25.785Z,56.52
2023-05-22T04:48:04.295Z,55.66
2023-05-22T04:50:42.626Z,54.80
2023-05-22T04:53:21.490Z,54.59
2023-05-22T04:56:04.907Z,53.16
2023-05-22T04:58:42.939Z,51.35
2023-05-22T05:01:23.269Z,48.23
2023-05-22T05:03:59.178Z,45.80
2023-05-22T05:06:32.855Z,44.35
2023-05-22T05:09:07.419Z,42.67
2023-05-22T05:11:45.758Z,42.87
2023-05-22T05:14:24.275Z,41.05
2023-05-22T05:17:02.908Z,38.85
2023-05-22T05:19:42.121Z,37.83
2023-05-22T05:22:18.068Z,36.77
2023-05-22T05:24:56.805Z,35.76
2023-05-22T05:27:35.066Z,35.17
2023-05-22T05:30:14.593Z,34.86
2023-05-22T05:32:52.830Z,34.39
2023-05-22T05:35:30.892Z,33.21
2023-05-22T05:38:09.197Z,33.01
2023-05-22T05:40:47.771Z,32.11
2023-05-22T05:43:25.834Z,31.38
2023-05-22T05:46:04.249Z,32.54
2023-05-22T05:48:42.330Z,31.43
2023-05-22T05:51:21.631Z,31.23
2023-05-22T05:53:56.962Z,30.32
2023-05-22T05:56:28.852Z,31.32
2023-05-22T05:59:07.196Z,31.17
2023-05-22T06:01:48.307Z,30.96
2023-05-22T06:04:24.767Z,32.05
2023-05-22T06:07:04.262Z,32.55
2023-05-22T06:09:42.788Z,34.14
2023-05-22T06:12:21.673Z,35.13
2023-05-22T06:15:00.007Z,35.71
2023-05-22T06:17:37.949Z,35.37
2023-05-22T06:20:16.042Z,34.59
2023-05-22T06:22:53.774Z,33.00
2023-05-22T06:25:32.446Z,32.91
2023-05-22T06:28:07.057Z,33.55
2023-05-22T06:30:46.249Z,31.73
2023-05-22T06:33:24.878Z,30.83
2023-05-22T06:36:04.164Z,29.54
2023-05-22T06:38:41.867Z,29.61
2023-05-22T06:41:12.381Z,29.57
2023-05-22T06:43:49.381Z,29.32
2023-05-22T06:46:26.781Z,29.13
2023-05-22T06:49:06.542Z,29.50
2023-05-22T06:51:44.141Z,29.66
2023-05-22T06:54:21.964Z,29.28
2023-05-22T06:56:59.779Z,28.78
2023-05-22T06:59:37.448Z,29.63
2023-05-22T07:02:16.037Z,28.16
2023-05-22T07:04:54.402Z,28.04
2023-05-22T07:07:32.235Z,27.54
2023-05-22T07:10:06.857Z,27.63
2023-05-22T07:12:38.133Z,27.41
2023-05-22T07:15:12.580Z,27.02
2023-05-22T07:17:50.232Z,27.55
2023-05-22T07:20:28.746Z,26.11
2023-05-22T07:23:04.953Z,26.59
2023-05-22T07:25:43.677Z,26.50
2023-05-22T07:28:21.894Z,26.17
2023-05-22T07:30:59.103Z,25.61
2023-05-22T07:33:37.392Z,25.47
2023-05-22T07:36:16.054Z,25.27
2023-05-22T07:38:54.915Z,25.39
2023-05-22T07:41:33.601Z,25.29
2023-05-22T07:44:11.679Z,25.11
2023-05-22T07:46:49.331Z,25.23
2023-05-22T07:49:28.339Z,25.19
2023-05-22T07:52:01.407Z,24.54
2023-05-22T07:54:32.347Z,24.43
2023-05-22T07:57:12.898Z,25.10
2023-05-22T07:59:51.155Z,25.03
2023-05-22T08:02:28.589Z,24.38
2023-05-22T08:05:07.733Z,24.30
2023-05-22T08:07:46.390Z,24.87
2023-05-22T08:10:19.227Z,24.88
2023-05-22T08:12:58.936Z,25.10
2023-05-22T08:15:38.947Z,25.71
2023-05-22T08:18:17.807Z,26.49
2023-05-22T08:20:58.625Z,25.71
2023-05-22T08:23:38.927Z,25.56
2023-05-22T08:26:16.750Z,25.21
2023-05-22T08:28:54.207Z,24.95
2023-05-22T08:31:34.794Z,24.83
2023-05-22T08:34:12.537Z,25.29
2023-05-22T08:36:51.037Z,25.95
2023-05-22T08:39:29.430Z,25.66
2023-05-22T08:42:08.731Z,26.20
2023-05-22T08:44:47.869Z,26.93
2023-05-22T08:47:24.409Z,26.58
2023-05-22T08:50:00.803Z,26.53
2023-05-22T08:52:53.501Z,26.62
2023-05-22T08:55:31.979Z,25.53
2023-05-22T08:58:12.130Z,25.04
2023-05-22T09:00:50.612Z,23.87
2023-05-22T09:03:38.238Z,24.03
2023-05-22T09:06:18.066Z,23.96
2023-05-22T09:09:02.270Z,24.58
2023-05-22T09:11:40.633Z,25.84
2023-05-22T09:14:18.969Z,26.13
2023-05-22T09:16:57.672Z,26.14
2023-05-22T09:19:36.780Z,26.05
2023-05-22T09:22:14.954Z,26.56
2023-05-22T09:24:53.209Z,26.13
2023-05-22T09:27:32.810Z,24.55
2023-05-22T09:30:12.591Z,25.46
2023-05-22T09:32:54.106Z,25.19
2023-05-22T09:35:34.994Z,25.39
2023-05-22T09:38:16.167Z,25.51
2023-05-22T09:40:58.872Z,25.63
2023-05-22T09:43:38.259Z,25.97
2023-05-22T09:46:20.624Z,25.97
2023-05-22T09:49:04.104Z,26.18
2023-05-22T09:51:48.602Z,26.31
2023-05-22T09:54:31.400Z,25.75
2023-05-22T09:57:12.652Z,25.61
2023-05-22T09:59:59.775Z,25.22
2023-05-22T10:02:35.703Z,25.27
2023-05-22T10:05:29.644Z,25.08
2023-05-22T10:08:19.169Z,25.33
2023-05-22T10:10:58.274Z,25.74
2023-05-22T10:13:37.032Z,27.32
2023-05-22T10:16:17.211Z,27.73
2023-05-22T10:18:55.751Z,26.92
2023-05-22T10:21:34.504Z,27.25
2023-05-22T10:24:11.261Z,27.72
2023-05-22T10:26:51.079Z,27.82
2023-05-22T10:30:00.108Z,28.20
2023-05-22T10:33:04.871Z,27.51
2023-05-22T10:36:00.166Z,27.32
2023-05-22T10:39:00.736Z,27.50
2023-05-22T10:41:39.584Z,28.09
2023-05-22T10:44:19.580Z,28.96
2023-05-22T10:46:51.048Z,28.78
2023-05-22T10:49:27.264Z,28.13
2023-05-22T10:51:57.770Z,28.61
2023-05-22T10:54:49.577Z,29.92
2023-05-22T10:57:28.755Z,29.09
2023-05-22T11:00:20.514Z,28.54
2023-05-22T11:03:17.943Z,28.15
2023-05-22T11:05:57.948Z,27.23
2023-05-22T11:08:39.888Z,27.10
2023-05-22T11:11:17.918Z,26.87
2023-05-22T11:14:07.031Z,27.57
2023-05-22T11:16:43.138Z,27.55
2023-05-22T11:19:26.586Z,26.84
2023-05-22T11:22:02.538Z,27.29
2023-05-22T11:24:38.560Z,27.25
2023-05-22T11:27:16.992Z,26.13
2023-05-22T11:29:56.026Z,26.05
2023-05-22T11:32:34.204Z,25.33
2023-05-22T11:35:12.157Z,25.83
2023-05-22T11:37:51.333Z,25.68
2023-05-22T11:40:31.864Z,25.78
2023-05-22T11:43:10.713Z,25.36
2023-05-22T11:45:48.753Z,26.22
2023-05-22T11:48:28.019Z,26.59
2023-05-22T11:51:06.731Z,26.22
2023-05-22T11:53:45.127Z,26.14
2023-05-22T11:56:24.258Z,25.92
2023-05-22T11:58:57.486Z,26.17
2023-05-22T12:01:36.750Z,25.96
2023-05-22T12:04:14.819Z,25.86
2023-05-22T12:06:54.874Z,25.82
2023-05-22T12:09:36.458Z,26.05
2023-05-22T12:12:17.576Z,26.05
2023-05-22T12:14:55.389Z,26.38
2023-05-22T12:17:33.638Z,26.42
2023-05-22T12:20:16.408Z,26.43
2023-05-22T12:22:49.861Z,26.76
2023-05-22T12:25:21.156Z,27.20
2023-05-22T12:27:59.906Z,27.64
2023-05-22T12:30:42.284Z,27.49
2023-05-22T12:33:21.211Z,27.29
2023-05-22T12:36:00.060Z,27.45
2023-05-22T12:38:39.885Z,27.68
2023-05-22T12:41:18.552Z,27.96
2023-05-22T12:43:57.234Z,28.13
2023-05-22T12:46:39.326Z,28.28
2023-05-22T12:49:18.216Z,28.50
2023-05-22T12:51:56.694Z,28.22
2023-05-22T12:54:35.813Z,28.27
2023-05-22T12:57:17.417Z,27.84
2023-05-22T12:59:55.740Z,28.00
2023-05-22T13:02:34.617Z,27.89
2023-05-22T13:05:14.222Z,26.57
2023-05-22T13:07:53.679Z,27.34
2023-05-22T13:10:32.302Z,27.17
2023-05-22T13:13:04.062Z,26.88
2023-05-22T13:15:42.149Z,26.81
2023-05-22T13:18:20.824Z,26.67
2023-05-22T13:20:52.605Z,26.73
2023-05-22T13:23:23.655Z,27.03
2023-05-22T13:26:02.730Z,26.96
2023-05-22T13:28:41.206Z,26.87
2023-05-22T13:31:19.792Z,27.32
2023-05-22T13:33:51.687Z,27.33
2023-05-22T13:36:30.603Z,27.38
2023-05-22T13:39:09.648Z,26.73
2023-05-22T13:41:43.292Z,27.22
2023-05-22T13:44:21.770Z,26.69
2023-05-22T13:46:56.056Z,26.46
2023-05-22T13:49:33.042Z,26.23
2023-05-22T13:52:03.780Z,26.00
2023-05-22T13:54:41.931Z,26.02
2023-05-22T13:57:21.001Z,25.49
2023-05-22T13:59:59.347Z,25.69
2023-05-22T14:02:37.950Z,26.10
2023-05-22T14:05:09.681Z,26.80
2023-05-22T14:07:47.818Z,26.74
2023-05-22T14:10:26.303Z,26.48
2023-05-22T14:13:04.395Z,26.69
2023-05-22T14:15:42.950Z,26.81
2023-05-22T14:18:21.579Z,26.47
2023-05-22T14:20:59.547Z,26.91
2023-05-22T14:23:37.999Z,26.98
2023-05-22T14:26:16.780Z,27.05
2023-05-22T14:28:47.846Z,26.72
2023-05-22T14:31:24.321Z,27.00
2023-05-22T14:34:02.948Z,26.98
2023-05-22T14:36:40.683Z,26.87
2023-05-22T14:39:19.173Z,26.93
2023-05-22T14:41:58.698Z,26.88
2023-05-22T14:44:36.981Z,26.96
2023-05-22T14:47:16.019Z,27.18
2023-05-22T14:49:57.684Z,26.95
2023-05-22T14:52:41.721Z,27.08
2023-05-22T14:55:21.494Z,26.98
2023-05-22T14:58:00.339Z,27.11
2023-05-22T15:00:37.555Z,27.22
2023-05-22T15:03:17.199Z,27.07
2023-05-22T15:05:56.673Z,27.08
2023-05-22T15:08:37.138Z,27.27
2023-05-22T15:11:15.682Z,27.57
2023-05-22T15:13:56.842Z,27.72
2023-05-22T15:16:35.084Z,27.68
2023-05-22T15:19:05.551Z,27.73
2023-05-22T15:21:37.606Z,27.81
2023-05-22T15:24:10.274Z,28.02
2023-05-22T15:26:45.760Z,27.68
2023-05-22T15:29:23.238Z,27.45
2023-05-22T15:32:00.986Z,27.59
2023-05-22T15:34:32.239Z,27.40
2023-05-22T15:37:14.035Z,27.40
2023-05-22T15:39:51.900Z,27.58
2023-05-22T15:42:30.144Z,27.34
2023-05-22T15:45:08.510Z,27.32
2023-05-22T15:47:47.400Z,27.36
2023-05-22T15:50:25.744Z,27.49
2023-05-22T15:53:04.541Z,27.73
2023-05-22T15:55:43.134Z,27.66
2023-05-22T15:58:22.562Z,27.68
2023-05-22T16:01:02.253Z,28.01
2023-05-22T16:03:41.543Z,27.89
2023-05-22T16:06:13.109Z,27.71
2023-05-22T16:08:46.881Z,27.66
2023-05-22T16:11:25.573Z,27.70
2023-05-22T16:14:03.968Z,27.74
2023-05-22T16:16:42.305Z,28.01
2023-05-22T16:19:20.485Z,28.22
2023-05-22T16:21:58.252Z,28.08
2023-05-22T16:24:28.795Z,27.92
2023-05-22T16:27:07.838Z,27.82
2023-05-22T16:29:45.246Z,28.04
2023-05-22T16:32:23.366Z,28.18
2023-05-22T16:35:02.148Z,28.27
2023-05-22T16:37:41.470Z,27.96
2023-05-22T16:40:20.926Z,28.22
2023-05-22T16:42:59.842Z,28.23
2023-05-22T16:45:32.852Z,28.12
2023-05-22T16:48:09.366Z,28.21
2023-05-22T16:50:48.429Z,28.17
2023-05-22T16:53:27.315Z,28.43
2023-05-22T16:56:05.119Z,28.46
2023-05-22T16:58:43.071Z,28.56
2023-05-22T17:01:22.525Z,28.73
2023-05-22T17:03:57.720Z,28.35
2023-05-22T17:06:32.963Z,28.63
2023-05-22T17:09:11.248Z,28.44
2023-05-22T17:11:45.280Z,28.84
2023-05-22T17:14:22.262Z,29.09
2023-05-22T17:16:59.453Z,29.35
2023-05-22T17:19:31.017Z,29.47
2023-05-22T17:22:09.178Z,29.85
2023-05-22T17:24:46.986Z,29.94
2023-05-22T17:27:35.483Z,29.91
2023-05-22T17:30:12.286Z,30.09
2023-05-22T17:32:50.480Z,30.35
2023-05-22T17:35:29.290Z,30.32
2023-05-22T17:38:08.893Z,30.33
2023-05-22T17:40:47.464Z,30.86
2023-05-22T17:43:21.155Z,30.63
2023-05-22T17:45:58.814Z,30.76
2023-05-22T17:48:36.983Z,30.78
2023-05-22T17:51:15.746Z,30.77
2023-05-22T17:53:56.498Z,31.09
2023-05-22T17:56:32.206Z,31.29
2023-05-22T17:59:11.296Z,31.40
2023-05-22T18:01:49.653Z,31.64
2023-05-22T18:04:27.048Z,31.80
2023-05-22T18:07:04.321Z,32.08
2023-05-22T18:09:41.417Z,32.15
2023-05-22T18:12:30.152Z,32.32
2023-05-22T18:15:13.688Z,32.58
2023-05-22T18:17:50.975Z,32.54
2023-05-22T18:20:24.749Z,33.26
2023-05-22T18:23:03.226Z,33.10
2023-05-22T18:25:33.400Z,33.50
2023-05-22T18:28:11.036Z,33.51
2023-05-22T18:30:49.889Z,33.67
2023-05-22T18:33:27.900Z,34.02
2023-05-22T18:36:08.521Z,34.26
2023-05-22T18:38:40.050Z,34.34
2023-05-22T18:41:14.798Z,34.25
2023-05-22T18:43:52.986Z,34.66
2023-05-22T18:46:31.596Z,35.29
2023-05-22T18:49:11.236Z,35.32
2023-05-22T18:51:48.798Z,35.37
2023-05-22T18:54:27.278Z,35.64
2023-05-22T18:57:04.994Z,35.65
2023-05-22T18:59:38.046Z,36.15
2023-05-22T19:02:09.285Z,36.48
2023-05-22T19:04:49.372Z,36.37
2023-05-22T19:07:23.549Z,36.43
2023-05-22T19:10:03.858Z,36.91
2023-05-22T19:12:43.681Z,37.05
2023-05-22T19:15:23.538Z,37.67
2023-05-22T19:18:04.075Z,38.04
2023-05-22T19:20:42.303Z,38.10
2023-05-22T19:23:20.433Z,38.76
2023-05-22T19:25:58.820Z,38.58
2023-05-22T19:28:38.210Z,38.64
2023-05-22T19:31:17.021Z,39.01
2023-05-22T19:33:49.750Z,39.64
2023-05-22T19:36:27.781Z,40.20
2023-05-22T19:39:06.737Z,40.17
2023-05-22T19:41:45.505Z,40.15
2023-05-22T19:44:17.744Z,40.36
2023-05-22T19:46:53.860Z,40.30
2023-05-22T19:49:34.774Z,40.86
2023-05-22T19:52:13.947Z,41.13
2023-05-22T19:54:53.346Z,41.23
2023-05-22T19:57:35.434Z,41.56
2023-05-22T20:00:12.495Z,41.78
2023-05-22T20:02:52.245Z,42.51
2023-05-22T20:05:30.350Z,42.37
2023-05-22T20:08:13.445Z,42.81
2023-05-22T20:10:52.582Z,42.83
2023-05-22T20:13:30.815Z,42.58
2023-05-22T20:16:13.261Z,43.12
2023-05-22T20:18:51.359Z,43.24
2023-05-22T20:21:31.213Z,43.77
2023-05-22T20:24:17.764Z,43.97
2023-05-22T20:26:54.934Z,43.75
2023-05-22T20:29:33.744Z,44.18
2023-05-22T20:32:13.149Z,44.48
2023-05-22T20:34:52.732Z,45.08
2023-05-22T20:37:29.857Z,45.61
2023-05-22T20:40:09.634Z,46.41
2023-05-22T20:42:47.896Z,46.59
2023-05-22T20:45:27.375Z,47.17
2023-05-22T20:48:06.648Z,47.54
2023-05-22T20:50:47.965Z,47.80
2023-05-22T20:53:26.847Z,47.93
2023-05-22T20:56:06.315Z,48.25
2023-05-22T20:58:44.928Z,48.59
2023-05-22T21:01:23.767Z,48.88
2023-05-22T21:04:02.444Z,49.17
2023-05-22T21:06:40.993Z,49.50
2023-05-22T21:09:19.900Z,49.86
2023-05-22T21:11:50.838Z,49.93
2023-05-22T21:14:29.331Z,49.86
2023-05-22T21:17:01.505Z,50.48
2023-05-22T21:19:36.500Z,50.51
2023-05-22T21:22:15.396Z,50.86
2023-05-22T21:24:53.923Z,51.45
2023-05-22T21:27:32.192Z,51.82
2023-05-22T21:30:11.082Z,51.70
2023-05-22T21:32:49.110Z,51.52
2023-05-22T21:35:30.117Z,52.35
2023-05-22T21:38:11.471Z,52.17
2023-05-22T21:40:50.183Z,52.20
2023-05-22T21:43:31.717Z,52.53
2023-05-22T21:46:11.556Z,52.22
2023-05-22T21:48:46.902Z,52.85
2023-05-22T21:51:25.521Z,52.69
2023-05-22T21:53:55.890Z,53.10
2023-05-22T21:56:34.333Z,53.72
2023-05-22T21:59:14.316Z,53.63
2023-05-22T22:01:53.246Z,54.04
2023-05-22T22:04:31.926Z,53.83
2023-05-22T22:07:03.059Z,54.37
2023-05-22T22:09:38.367Z,54.53
2023-05-22T22:12:17.224Z,54.25
2023-05-22T22:14:55.861Z,54.64
2023-05-22T22:17:35.069Z,54.56
2023-05-22T22:20:14.766Z,54.68
2023-05-22T22:22:53.808Z,54.86
2023-05-22T22:25:32.438Z,55.08
2023-05-22T22:28:09.370Z,55.51
2023-05-22T22:30:51.365Z,55.39
2023-05-22T22:33:28.281Z,55.57
2023-05-22T22:36:07.318Z,55.70
2023-05-22T22:38:46.382Z,56.35
2023-05-22T22:41:16.480Z,55.93
2023-05-22T22:43:54.783Z,56.71
2023-05-22T22:46:32.844Z,56.97
2023-05-22T22:49:13.495Z,56.83
2023-05-22T22:51:51.666Z,56.93
2023-05-22T22:54:30.693Z,57.10
2023-05-22T22:57:11.179Z,56.91
2023-05-22T22:59:49.742Z,56.72
2023-05-22T23:02:27.644Z,57.06
2023-05-22T23:05:08.412Z,57.19
2023-05-22T23:07:46.828Z,57.49
2023-05-22T23:10:20.815Z,57.33
2023-05-22T23:12:50.775Z,57.31
2023-05-22T23:15:29.770Z,57.47
2023-05-22T23:21:22.929Z,57.36
2023-05-22T23:23:53.610Z,57.61
2023-05-22T23:26:35.855Z,57.68
2023-05-22T23:29:13.867Z,57.78
2023-05-22T23:31:53.283Z,57.67
2023-05-22T23:34:31.627Z,58.07
2023-05-22T23:37:11.910Z,58.04
2023-05-22T23:39:51.160Z,58.14
2023-05-22T23:42:30.228Z,58.61
2023-05-22T23:45:10.202Z,58.81
2023-05-22T23:47:48.243Z,58.65
2023-05-22T23:50:27.019Z,59.17
2023-05-22T23:53:05.309Z,59.16
2023-05-22T23:55:44.591Z,59.20
2023-05-22T23:58:18.529Z,59.41
